sensor_id;sensor_type;location;lat;lon;timestamp;pressure;altitude;pressure_sealevel;temperature;humidity
23635;BME280;11994;51.038;16.974;2023-10-31T00:00:36;98338.83;;;15.84;94.55
23635;BME280;11994;51.038;16.974;2023-10-31T00:03:01;98335.36;;;15.87;94.48
23635;BME280;11994;51.038;16.974;2023-10-31T00:05:26;98331.02;;;15.91;94.55
23635;BME280;11994;51.038;16.974;2023-10-31T00:07:51;98327.25;;;15.94;94.67
23635;BME280;11994;51.038;16.974;2023-10-31T00:10:17;98325.27;;;15.99;94.66
23635;BME280;11994;51.038;16.974;2023-10-31T00:12:42;98322.51;;;16.06;94.61
23635;BME280;11994;51.038;16.974;2023-10-31T00:15:07;98312.47;;;16.10;94.44
23635;BME280;11994;51.038;16.974;2023-10-31T00:17:33;98309.27;;;16.13;94.41
23635;BME280;11994;51.038;16.974;2023-10-31T00:19:58;98313.22;;;16.16;94.28
23635;BME280;11994;51.038;16.974;2023-10-31T00:22:23;98314.50;;;16.20;94.28
23635;BME280;11994;51.038;16.974;2023-10-31T00:24:49;98315.00;;;16.23;94.13
23635;BME280;11994;51.038;16.974;2023-10-31T00:27:14;98316.36;;;16.26;94.14
23635;BME280;11994;51.038;16.974;2023-10-31T00:29:40;98313.13;;;16.29;94.15
23635;BME280;11994;51.038;16.974;2023-10-31T00:32:05;98302.48;;;16.31;94.02
23635;BME280;11994;51.038;16.974;2023-10-31T00:34:30;98289.33;;;16.30;93.74
23635;BME280;11994;51.038;16.974;2023-10-31T00:36:56;98285.34;;;16.30;93.63
23635;BME280;11994;51.038;16.974;2023-10-31T00:39:21;98284.80;;;16.28;93.47
23635;BME280;11994;51.038;16.974;2023-10-31T00:41:46;98274.95;;;16.27;93.36
23635;BME280;11994;51.038;16.974;2023-10-31T00:44:12;98270.44;;;16.26;93.41
23635;BME280;11994;51.038;16.974;2023-10-31T00:46:37;98259.80;;;16.27;93.44
23635;BME280;11994;51.038;16.974;2023-10-31T00:49:03;98255.21;;;16.29;93.45
23635;BME280;11994;51.038;16.974;2023-10-31T00:51:28;98246.77;;;16.31;93.36
23635;BME280;11994;51.038;16.974;2023-10-31T00:53:53;98232.51;;;16.33;93.29
23635;BME280;11994;51.038;16.974;2023-10-31T00:56:18;98229.88;;;16.35;93.28
23635;BME280;11994;51.038;16.974;2023-10-31T00:58:44;98221.88;;;16.36;93.11
23635;BME280;11994;51.038;16.974;2023-10-31T01:01:09;98214.06;;;16.36;93.03
23635;BME280;11994;51.038;16.974;2023-10-31T01:03:34;98204.81;;;16.37;92.93
23635;BME280;11994;51.038;16.974;2023-10-31T01:06:00;98196.80;;;16.39;92.87
23635;BME280;11994;51.038;16.974;2023-10-31T01:08:25;98195.30;;;16.42;92.80
23635;BME280;11994;51.038;16.974;2023-10-31T01:10:50;98199.56;;;16.48;92.60
23635;BME280;11994;51.038;16.974;2023-10-31T01:13:15;98202.55;;;16.53;92.39
23635;BME280;11994;51.038;16.974;2023-10-31T01:15:41;98198.86;;;16.57;92.28
23635;BME280;11994;51.038;16.974;2023-10-31T01:18:06;98189.83;;;16.59;92.11
23635;BME280;11994;51.038;16.974;2023-10-31T01:20:31;98180.41;;;16.62;91.91
23635;BME280;11994;51.038;16.974;2023-10-31T01:22:57;98173.80;;;16.63;91.73
23635;BME280;11994;51.038;16.974;2023-10-31T01:25:22;98172.02;;;16.64;91.63
23635;BME280;11994;51.038;16.974;2023-10-31T01:27:47;98168.13;;;16.63;91.43
23635;BME280;11994;51.038;16.974;2023-10-31T01:30:12;98168.85;;;16.63;91.31
23635;BME280;11994;51.038;16.974;2023-10-31T01:32:38;98169.44;;;16.63;91.06
23635;BME280;11994;51.038;16.974;2023-10-31T01:35:04;98169.32;;;16.62;91.09
23635;BME280;11994;51.038;16.974;2023-10-31T01:37:29;98167.39;;;16.61;90.89
23635;BME280;11994;51.038;16.974;2023-10-31T01:39:54;98162.20;;;16.58;90.69
23635;BME280;11994;51.038;16.974;2023-10-31T01:42:19;98160.71;;;16.57;90.51
23635;BME280;11994;51.038;16.974;2023-10-31T01:44:45;98164.04;;;16.53;90.51
23635;BME280;11994;51.038;16.974;2023-10-31T01:47:10;98163.05;;;16.50;90.25
23635;BME280;11994;51.038;16.974;2023-10-31T01:49:38;98160.56;;;16.48;90.02
23635;BME280;11994;51.038;16.974;2023-10-31T01:52:04;98160.52;;;16.51;90.01
23635;BME280;11994;51.038;16.974;2023-10-31T01:54:31;98156.23;;;16.58;89.86
23635;BME280;11994;51.038;16.974;2023-10-31T01:56:57;98146.59;;;16.67;89.71
23635;BME280;11994;51.038;16.974;2023-10-31T01:59:25;98142.59;;;16.79;89.52
23635;BME280;11994;51.038;16.974;2023-10-31T02:01:51;98136.06;;;16.94;89.01
23635;BME280;11994;51.038;16.974;2023-10-31T02:04:16;98134.14;;;17.07;88.54
23635;BME280;11994;51.038;16.974;2023-10-31T02:06:41;98131.98;;;17.17;87.84
23635;BME280;11994;51.038;16.974;2023-10-31T02:09:07;98129.75;;;17.25;86.96
23635;BME280;11994;51.038;16.974;2023-10-31T02:11:32;98124.27;;;17.32;86.33
23635;BME280;11994;51.038;16.974;2023-10-31T02:13:57;98123.50;;;17.36;86.05
23635;BME280;11994;51.038;16.974;2023-10-31T02:16:23;98122.25;;;17.39;85.63
23635;BME280;11994;51.038;16.974;2023-10-31T02:18:48;98116.73;;;17.39;85.28
23635;BME280;11994;51.038;16.974;2023-10-31T02:21:13;98114.03;;;17.37;84.98
23635;BME280;11994;51.038;16.974;2023-10-31T02:23:39;98109.97;;;17.35;84.81
23635;BME280;11994;51.038;16.974;2023-10-31T02:26:04;98111.23;;;17.35;84.58
23635;BME280;11994;51.038;16.974;2023-10-31T02:28:29;98112.75;;;17.34;84.42
23635;BME280;11994;51.038;16.974;2023-10-31T02:30:55;98111.09;;;17.35;84.24
23635;BME280;11994;51.038;16.974;2023-10-31T02:33:21;98105.10;;;17.36;84.16
23635;BME280;11994;51.038;16.974;2023-10-31T02:35:46;98101.78;;;17.36;84.02
23635;BME280;11994;51.038;16.974;2023-10-31T02:38:11;98097.10;;;17.35;83.94
23635;BME280;11994;51.038;16.974;2023-10-31T02:40:37;98098.45;;;17.36;83.67
23635;BME280;11994;51.038;16.974;2023-10-31T02:43:02;98093.02;;;17.35;83.62
23635;BME280;11994;51.038;16.974;2023-10-31T02:45:27;98088.73;;;17.36;83.35
23635;BME280;11994;51.038;16.974;2023-10-31T02:47:52;98082.91;;;17.35;83.15
23635;BME280;11994;51.038;16.974;2023-10-31T02:50:18;98084.83;;;17.34;82.87
23635;BME280;11994;51.038;16.974;2023-10-31T02:52:43;98089.90;;;17.34;82.66
23635;BME280;11994;51.038;16.974;2023-10-31T02:55:08;98092.36;;;17.35;82.46
23635;BME280;11994;51.038;16.974;2023-10-31T02:57:34;98092.42;;;17.36;82.16
23635;BME280;11994;51.038;16.974;2023-10-31T02:59:59;98094.77;;;17.37;81.69
23635;BME280;11994;51.038;16.974;2023-10-31T03:02:24;98085.00;;;17.40;81.34
23635;BME280;11994;51.038;16.974;2023-10-31T03:04:49;98082.86;;;17.43;81.21
23635;BME280;11994;51.038;16.974;2023-10-31T03:07:15;98078.24;;;17.43;80.73
23635;BME280;11994;51.038;16.974;2023-10-31T03:09:40;98071.73;;;17.43;80.54
23635;BME280;11994;51.038;16.974;2023-10-31T03:12:05;98064.37;;;17.42;80.58
23635;BME280;11994;51.038;16.974;2023-10-31T03:14:31;98064.20;;;17.42;80.45
23635;BME280;11994;51.038;16.974;2023-10-31T03:16:56;98063.67;;;17.42;80.31
23635;BME280;11994;51.038;16.974;2023-10-31T03:19:21;98059.98;;;17.43;80.28
23635;BME280;11994;51.038;16.974;2023-10-31T03:21:46;98058.09;;;17.43;80.15
23635;BME280;11994;51.038;16.974;2023-10-31T03:24:11;98055.88;;;17.42;80.03
23635;BME280;11994;51.038;16.974;2023-10-31T03:26:37;98051.15;;;17.39;79.93
23635;BME280;11994;51.038;16.974;2023-10-31T03:29:02;98050.38;;;17.38;79.93
23635;BME280;11994;51.038;16.974;2023-10-31T03:31:27;98047.00;;;17.40;79.87
23635;BME280;11994;51.038;16.974;2023-10-31T03:33:52;98039.48;;;17.43;79.71
23635;BME280;11994;51.038;16.974;2023-10-31T03:36:18;98040.92;;;17.47;79.70
23635;BME280;11994;51.038;16.974;2023-10-31T03:38:45;98037.63;;;17.52;79.56
23635;BME280;11994;51.038;16.974;2023-10-31T03:41:10;98031.98;;;17.56;79.46
23635;BME280;11994;51.038;16.974;2023-10-31T03:43:35;98027.05;;;17.58;79.26
23635;BME280;11994;51.038;16.974;2023-10-31T03:46:00;98026.20;;;17.58;79.07
23635;BME280;11994;51.038;16.974;2023-10-31T03:48:26;98028.23;;;17.57;78.97
23635;BME280;11994;51.038;16.974;2023-10-31T03:50:51;98030.70;;;17.57;78.90
23635;BME280;11994;51.038;16.974;2023-10-31T03:53:17;98029.86;;;17.56;78.80
23635;BME280;11994;51.038;16.974;2023-10-31T03:55:42;98027.15;;;17.55;78.70
23635;BME280;11994;51.038;16.974;2023-10-31T03:58:07;98027.73;;;17.52;78.68
23635;BME280;11994;51.038;16.974;2023-10-31T04:00:32;98030.06;;;17.50;78.59
23635;BME280;11994;51.038;16.974;2023-10-31T04:02:58;98042.30;;;17.48;78.40
23635;BME280;11994;51.038;16.974;2023-10-31T04:05:23;98057.54;;;17.43;78.50
23635;BME280;11994;51.038;16.974;2023-10-31T04:07:48;98053.11;;;17.39;78.76
23635;BME280;11994;51.038;16.974;2023-10-31T04:10:14;98052.05;;;17.32;78.67
23635;BME280;11994;51.038;16.974;2023-10-31T04:12:39;98048.79;;;17.27;78.68
23635;BME280;11994;51.038;16.974;2023-10-31T04:15:04;98039.76;;;17.24;78.88
23635;BME280;11994;51.038;16.974;2023-10-31T04:17:30;98038.80;;;17.18;78.87
23635;BME280;11994;51.038;16.974;2023-10-31T04:19:55;98033.40;;;17.17;79.04
23635;BME280;11994;51.038;16.974;2023-10-31T04:22:21;98030.13;;;17.23;78.51
23635;BME280;11994;51.038;16.974;2023-10-31T04:24:46;98030.98;;;17.37;78.22
23635;BME280;11994;51.038;16.974;2023-10-31T04:27:11;98025.91;;;17.53;78.08
23635;BME280;11994;51.038;16.974;2023-10-31T04:29:36;98026.64;;;17.59;77.43
23635;BME280;11994;51.038;16.974;2023-10-31T04:32:02;98022.64;;;17.64;76.90
23635;BME280;11994;51.038;16.974;2023-10-31T04:34:27;98021.58;;;17.72;76.99
23635;BME280;11994;51.038;16.974;2023-10-31T04:36:52;98025.83;;;17.74;76.95
23635;BME280;11994;51.038;16.974;2023-10-31T04:39:18;98020.67;;;17.74;76.60
23635;BME280;11994;51.038;16.974;2023-10-31T04:41:43;98018.40;;;17.74;76.49
23635;BME280;11994;51.038;16.974;2023-10-31T04:44:08;98016.64;;;17.70;76.34
23635;BME280;11994;51.038;16.974;2023-10-31T04:46:33;98015.64;;;17.67;76.30
23635;BME280;11994;51.038;16.974;2023-10-31T04:48:59;98017.05;;;17.63;76.41
23635;BME280;11994;51.038;16.974;2023-10-31T04:51:24;98021.27;;;17.58;76.22
23635;BME280;11994;51.038;16.974;2023-10-31T04:53:49;98021.17;;;17.55;76.36
23635;BME280;11994;51.038;16.974;2023-10-31T04:56:15;98019.16;;;17.53;76.46
23635;BME280;11994;51.038;16.974;2023-10-31T04:58:41;98013.06;;;17.56;76.31
23635;BME280;11994;51.038;16.974;2023-10-31T05:01:13;98009.36;;;17.62;76.07
23635;BME280;11994;51.038;16.974;2023-10-31T05:03:38;98009.14;;;17.67;76.31
23635;BME280;11994;51.038;16.974;2023-10-31T05:06:04;98009.21;;;17.70;76.27
23635;BME280;11994;51.038;16.974;2023-10-31T05:08:29;98006.87;;;17.72;76.26
23635;BME280;11994;51.038;16.974;2023-10-31T05:10:55;98003.67;;;17.73;76.10
23635;BME280;11994;51.038;16.974;2023-10-31T05:13:20;98008.71;;;17.73;76.14
23635;BME280;11994;51.038;16.974;2023-10-31T05:15:45;98008.19;;;17.73;75.89
23635;BME280;11994;51.038;16.974;2023-10-31T05:18:10;98011.52;;;17.74;76.04
23635;BME280;11994;51.038;16.974;2023-10-31T05:20:36;98016.39;;;17.72;75.89
23635;BME280;11994;51.038;16.974;2023-10-31T05:23:01;98019.91;;;17.71;75.94
23635;BME280;11994;51.038;16.974;2023-10-31T05:25:26;98016.96;;;17.68;76.15
23635;BME280;11994;51.038;16.974;2023-10-31T05:27:51;98017.23;;;17.65;76.10
23635;BME280;11994;51.038;16.974;2023-10-31T05:30:17;98008.50;;;17.62;76.50
23635;BME280;11994;51.038;16.974;2023-10-31T05:32:43;98011.72;;;17.56;76.51
23635;BME280;11994;51.038;16.974;2023-10-31T05:35:09;98021.52;;;17.51;76.76
23635;BME280;11994;51.038;16.974;2023-10-31T05:37:34;98023.24;;;17.49;77.03
23635;BME280;11994;51.038;16.974;2023-10-31T05:39:59;98022.38;;;17.49;77.18
23635;BME280;11994;51.038;16.974;2023-10-31T05:42:26;98027.41;;;17.48;77.17
23635;BME280;11994;51.038;16.974;2023-10-31T05:44:52;98033.98;;;17.48;77.59
23635;BME280;11994;51.038;16.974;2023-10-31T05:47:17;98043.36;;;17.45;77.80
23635;BME280;11994;51.038;16.974;2023-10-31T05:49:43;98049.00;;;17.40;77.86
23635;BME280;11994;51.038;16.974;2023-10-31T05:52:09;98054.53;;;17.37;78.07
23635;BME280;11994;51.038;16.974;2023-10-31T05:54:34;98051.95;;;17.32;78.36
23635;BME280;11994;51.038;16.974;2023-10-31T05:56:59;98053.59;;;17.27;79.09
23635;BME280;11994;51.038;16.974;2023-10-31T05:59:24;98060.58;;;17.20;79.37
23635;BME280;11994;51.038;16.974;2023-10-31T06:01:50;98065.31;;;17.12;79.93
23635;BME280;11994;51.038;16.974;2023-10-31T06:04:15;98060.98;;;17.03;80.37
23635;BME280;11994;51.038;16.974;2023-10-31T06:06:41;98061.72;;;16.96;81.06
23635;BME280;11994;51.038;16.974;2023-10-31T06:09:06;98062.32;;;16.91;81.55
23635;BME280;11994;51.038;16.974;2023-10-31T06:11:31;98064.65;;;16.85;81.81
23635;BME280;11994;51.038;16.974;2023-10-31T06:13:57;98068.73;;;16.78;81.85
23635;BME280;11994;51.038;16.974;2023-10-31T06:16:24;98075.95;;;16.72;82.24
23635;BME280;11994;51.038;16.974;2023-10-31T06:18:49;98085.98;;;16.68;82.44
23635;BME280;11994;51.038;16.974;2023-10-31T06:21:14;98096.63;;;16.66;82.65
23635;BME280;11994;51.038;16.974;2023-10-31T06:23:40;98099.48;;;16.63;82.89
23635;BME280;11994;51.038;16.974;2023-10-31T06:26:05;98109.44;;;16.64;82.98
23635;BME280;11994;51.038;16.974;2023-10-31T06:28:30;98115.38;;;16.67;83.14
23635;BME280;11994;51.038;16.974;2023-10-31T06:30:59;98117.44;;;16.68;83.17
23635;BME280;11994;51.038;16.974;2023-10-31T06:33:24;98117.61;;;16.70;83.21
23635;BME280;11994;51.038;16.974;2023-10-31T06:35:49;98126.29;;;16.74;83.67
23635;BME280;11994;51.038;16.974;2023-10-31T06:38:16;98135.41;;;16.77;83.71
23635;BME280;11994;51.038;16.974;2023-10-31T06:40:42;98138.21;;;16.77;84.01
23635;BME280;11994;51.038;16.974;2023-10-31T06:43:07;98137.91;;;16.77;84.33
23635;BME280;11994;51.038;16.974;2023-10-31T06:45:32;98139.37;;;16.74;84.80
23635;BME280;11994;51.038;16.974;2023-10-31T06:47:58;98142.52;;;16.70;84.97
23635;BME280;11994;51.038;16.974;2023-10-31T06:50:23;98149.53;;;16.64;85.15
23635;BME280;11994;51.038;16.974;2023-10-31T06:52:49;98155.02;;;16.57;85.53
23635;BME280;11994;51.038;16.974;2023-10-31T06:55:14;98156.75;;;16.51;86.08
23635;BME280;11994;51.038;16.974;2023-10-31T06:57:39;98168.40;;;16.45;86.23
23635;BME280;11994;51.038;16.974;2023-10-31T07:00:05;98174.65;;;16.37;86.45
23635;BME280;11994;51.038;16.974;2023-10-31T07:02:33;98187.68;;;16.31;86.83
23635;BME280;11994;51.038;16.974;2023-10-31T07:04:59;98190.67;;;16.26;87.04
23635;BME280;11994;51.038;16.974;2023-10-31T07:07:24;98193.14;;;16.20;87.21
23635;BME280;11994;51.038;16.974;2023-10-31T07:09:49;98189.48;;;16.15;87.66
23635;BME280;11994;51.038;16.974;2023-10-31T07:12:15;98188.42;;;16.11;88.05
23635;BME280;11994;51.038;16.974;2023-10-31T07:14:40;98195.95;;;16.07;88.39
23635;BME280;11994;51.038;16.974;2023-10-31T07:17:05;98207.05;;;16.02;88.41
23635;BME280;11994;51.038;16.974;2023-10-31T07:19:30;98211.96;;;16.01;88.59
23635;BME280;11994;51.038;16.974;2023-10-31T07:21:55;98208.66;;;16.00;88.67
23635;BME280;11994;51.038;16.974;2023-10-31T07:24:21;98213.73;;;16.01;88.74
23635;BME280;11994;51.038;16.974;2023-10-31T07:26:46;98214.81;;;16.00;88.85
23635;BME280;11994;51.038;16.974;2023-10-31T07:29:11;98221.14;;;16.03;88.92
23635;BME280;11994;51.038;16.974;2023-10-31T07:31:37;98226.30;;;16.07;89.10
23635;BME280;11994;51.038;16.974;2023-10-31T07:34:04;98235.23;;;16.12;89.11
23635;BME280;11994;51.038;16.974;2023-10-31T07:36:29;98242.14;;;16.14;89.10
23635;BME280;11994;51.038;16.974;2023-10-31T07:38:57;98253.89;;;16.12;88.63
23635;BME280;11994;51.038;16.974;2023-10-31T07:41:22;98260.39;;;16.11;88.06
23635;BME280;11994;51.038;16.974;2023-10-31T07:43:47;98268.00;;;16.06;87.44
23635;BME280;11994;51.038;16.974;2023-10-31T07:46:13;98268.64;;;16.02;87.14
23635;BME280;11994;51.038;16.974;2023-10-31T07:48:38;98267.80;;;15.99;87.09
23635;BME280;11994;51.038;16.974;2023-10-31T07:51:03;98276.75;;;15.95;87.23
23635;BME280;11994;51.038;16.974;2023-10-31T07:53:29;98287.54;;;15.95;87.31
23635;BME280;11994;51.038;16.974;2023-10-31T07:55:54;98296.84;;;15.96;87.51
23635;BME280;11994;51.038;16.974;2023-10-31T07:58:19;98300.92;;;15.95;87.62
23635;BME280;11994;51.038;16.974;2023-10-31T08:00:45;98314.80;;;15.98;87.86
23635;BME280;11994;51.038;16.974;2023-10-31T08:03:10;98329.02;;;15.99;88.11
23635;BME280;11994;51.038;16.974;2023-10-31T08:05:35;98338.39;;;15.98;88.36
23635;BME280;11994;51.038;16.974;2023-10-31T08:08:01;98341.23;;;15.96;88.53
23635;BME280;11994;51.038;16.974;2023-10-31T08:10:27;98343.33;;;15.97;88.69
23635;BME280;11994;51.038;16.974;2023-10-31T08:12:52;98347.31;;;16.00;88.94
23635;BME280;11994;51.038;16.974;2023-10-31T08:15:17;98358.36;;;15.98;89.09
23635;BME280;11994;51.038;16.974;2023-10-31T08:17:43;98363.63;;;15.92;89.37
23635;BME280;11994;51.038;16.974;2023-10-31T08:20:08;98369.25;;;15.85;89.60
23635;BME280;11994;51.038;16.974;2023-10-31T08:22:35;98369.59;;;15.73;89.63
23635;BME280;11994;51.038;16.974;2023-10-31T08:25:01;98375.29;;;15.68;90.04
23635;BME280;11994;51.038;16.974;2023-10-31T08:27:26;98373.70;;;15.66;90.23
23635;BME280;11994;51.038;16.974;2023-10-31T08:29:52;98375.83;;;15.60;90.95
23635;BME280;11994;51.038;16.974;2023-10-31T08:32:17;98380.77;;;15.58;91.24
23635;BME280;11994;51.038;16.974;2023-10-31T08:34:42;98388.41;;;15.55;91.23
23635;BME280;11994;51.038;16.974;2023-10-31T08:37:07;98399.39;;;15.52;91.50
23635;BME280;11994;51.038;16.974;2023-10-31T08:39:33;98401.06;;;15.46;91.48
23635;BME280;11994;51.038;16.974;2023-10-31T08:41:58;98405.58;;;15.44;91.76
23635;BME280;11994;51.038;16.974;2023-10-31T08:44:24;98409.58;;;15.43;91.93
23635;BME280;11994;51.038;16.974;2023-10-31T08:46:49;98414.01;;;15.40;91.99
23635;BME280;11994;51.038;16.974;2023-10-31T08:49:15;98418.59;;;15.37;92.11
23635;BME280;11994;51.038;16.974;2023-10-31T08:51:40;98420.15;;;15.35;92.21
23635;BME280;11994;51.038;16.974;2023-10-31T08:54:06;98419.80;;;15.32;92.13
23635;BME280;11994;51.038;16.974;2023-10-31T08:56:31;98428.23;;;15.30;92.35
23635;BME280;11994;51.038;16.974;2023-10-31T08:58:56;98439.32;;;15.33;92.80
23635;BME280;11994;51.038;16.974;2023-10-31T09:01:22;98449.94;;;15.35;93.05
23635;BME280;11994;51.038;16.974;2023-10-31T09:03:47;98443.86;;;15.36;92.98
23635;BME280;11994;51.038;16.974;2023-10-31T09:06:12;98432.35;;;15.39;93.19
23635;BME280;11994;51.038;16.974;2023-10-31T09:08:38;98431.81;;;15.42;93.06
23635;BME280;11994;51.038;16.974;2023-10-31T09:11:04;98442.91;;;15.47;93.38
23635;BME280;11994;51.038;16.974;2023-10-31T09:13:29;98444.90;;;15.53;93.60
23635;BME280;11994;51.038;16.974;2023-10-31T09:15:54;98449.64;;;15.61;93.76
23635;BME280;11994;51.038;16.974;2023-10-31T09:18:20;98452.73;;;15.71;94.08
23635;BME280;11994;51.038;16.974;2023-10-31T09:20:45;98454.47;;;15.79;93.81
23635;BME280;11994;51.038;16.974;2023-10-31T09:23:11;98457.00;;;15.81;93.54
23635;BME280;11994;51.038;16.974;2023-10-31T09:25:36;98463.38;;;15.83;93.60
23635;BME280;11994;51.038;16.974;2023-10-31T09:28:01;98477.19;;;15.87;93.76
23635;BME280;11994;51.038;16.974;2023-10-31T09:30:27;98482.38;;;15.90;93.47
23635;BME280;11994;51.038;16.974;2023-10-31T09:32:52;98483.34;;;15.92;93.17
23635;BME280;11994;51.038;16.974;2023-10-31T09:35:17;98480.96;;;15.93;93.21
23635;BME280;11994;51.038;16.974;2023-10-31T09:37:42;98478.80;;;15.93;93.28
23635;BME280;11994;51.038;16.974;2023-10-31T09:40:08;98482.04;;;15.93;93.04
23635;BME280;11994;51.038;16.974;2023-10-31T09:42:34;98477.66;;;15.92;92.84
23635;BME280;11994;51.038;16.974;2023-10-31T09:44:59;98478.75;;;15.90;92.69
23635;BME280;11994;51.038;16.974;2023-10-31T09:47:24;98477.42;;;15.90;92.76
23635;BME280;11994;51.038;16.974;2023-10-31T09:49:50;98479.65;;;15.91;92.50
23635;BME280;11994;51.038;16.974;2023-10-31T09:52:15;98478.34;;;15.93;92.40
23635;BME280;11994;51.038;16.974;2023-10-31T09:54:41;98471.79;;;15.93;92.39
23635;BME280;11994;51.038;16.974;2023-10-31T09:57:07;98470.23;;;15.97;92.66
23635;BME280;11994;51.038;16.974;2023-10-31T09:59:33;98469.00;;;16.07;93.13
23635;BME280;11994;51.038;16.974;2023-10-31T10:01:58;98469.24;;;16.17;93.14
23635;BME280;11994;51.038;16.974;2023-10-31T10:04:23;98473.30;;;16.22;92.85
23635;BME280;11994;51.038;16.974;2023-10-31T10:06:58;98471.53;;;16.24;92.96
23635;BME280;11994;51.038;16.974;2023-10-31T10:09:23;98477.94;;;16.24;92.25
23635;BME280;11994;51.038;16.974;2023-10-31T10:11:48;98483.34;;;16.22;92.47
23635;BME280;11994;51.038;16.974;2023-10-31T10:14:14;98487.17;;;16.21;92.40
23635;BME280;11994;51.038;16.974;2023-10-31T10:16:39;98495.50;;;16.18;92.39
23635;BME280;11994;51.038;16.974;2023-10-31T10:19:14;98495.67;;;16.15;92.49
23635;BME280;11994;51.038;16.974;2023-10-31T10:21:51;98500.15;;;16.12;92.62
23635;BME280;11994;51.038;16.974;2023-10-31T10:24:20;98507.17;;;16.06;92.54
23635;BME280;11994;51.038;16.974;2023-10-31T10:26:45;98513.60;;;16.02;92.84
23635;BME280;11994;51.038;16.974;2023-10-31T10:29:11;98522.08;;;15.97;92.32
23635;BME280;11994;51.038;16.974;2023-10-31T10:31:36;98524.95;;;15.96;91.75
23635;BME280;11994;51.038;16.974;2023-10-31T10:34:01;98535.39;;;15.96;91.11
23635;BME280;11994;51.038;16.974;2023-10-31T10:36:27;98549.64;;;15.87;90.61
23635;BME280;11994;51.038;16.974;2023-10-31T10:38:56;98563.63;;;15.69;90.18
23635;BME280;11994;51.038;16.974;2023-10-31T10:41:21;98569.08;;;15.49;90.31
23635;BME280;11994;51.038;16.974;2023-10-31T10:43:50;98569.92;;;15.35;90.62
23635;BME280;11994;51.038;16.974;2023-10-31T10:46:18;98573.69;;;15.24;91.16
23635;BME280;11994;51.038;16.974;2023-10-31T10:48:46;98571.67;;;15.09;90.13
23635;BME280;11994;51.038;16.974;2023-10-31T10:51:21;98573.04;;;14.87;89.22
23635;BME280;11994;51.038;16.974;2023-10-31T10:53:55;98568.79;;;14.69;89.93
23635;BME280;11994;51.038;16.974;2023-10-31T10:56:26;98564.98;;;14.61;90.69
23635;BME280;11994;51.038;16.974;2023-10-31T10:59:00;98562.71;;;14.58;91.44
23635;BME280;11994;51.038;16.974;2023-10-31T11:01:28;98554.05;;;14.58;91.60
23635;BME280;11994;51.038;16.974;2023-10-31T11:03:54;98544.39;;;14.61;91.76
23635;BME280;11994;51.038;16.974;2023-10-31T11:06:20;98537.34;;;14.63;91.14
23635;BME280;11994;51.038;16.974;2023-10-31T11:08:45;98539.96;;;14.63;90.10
23635;BME280;11994;51.038;16.974;2023-10-31T11:11:11;98536.72;;;14.65;89.42
23635;BME280;11994;51.038;16.974;2023-10-31T11:13:37;98541.36;;;14.66;88.15
23635;BME280;11994;51.038;16.974;2023-10-31T11:16:05;98545.38;;;14.69;87.50
23635;BME280;11994;51.038;16.974;2023-10-31T11:18:31;98541.76;;;14.71;86.43
23635;BME280;11994;51.038;16.974;2023-10-31T11:20:57;98548.74;;;14.71;85.98
23635;BME280;11994;51.038;16.974;2023-10-31T11:23:22;98554.08;;;14.73;85.66
23635;BME280;11994;51.038;16.974;2023-10-31T11:25:49;98551.10;;;14.76;86.09
23635;BME280;11994;51.038;16.974;2023-10-31T11:28:16;98555.45;;;14.76;85.80
23635;BME280;11994;51.038;16.974;2023-10-31T11:30:43;98557.70;;;14.77;85.64
23635;BME280;11994;51.038;16.974;2023-10-31T11:33:12;98570.12;;;14.78;85.62
23635;BME280;11994;51.038;16.974;2023-10-31T11:35:38;98571.98;;;14.79;85.56
23635;BME280;11994;51.038;16.974;2023-10-31T11:38:05;98576.54;;;14.80;85.50
23635;BME280;11994;51.038;16.974;2023-10-31T11:40:33;98572.33;;;14.79;85.33
23635;BME280;11994;51.038;16.974;2023-10-31T11:43:01;98574.18;;;14.78;84.82
23635;BME280;11994;51.038;16.974;2023-10-31T11:45:28;98576.34;;;14.80;84.90
23635;BME280;11994;51.038;16.974;2023-10-31T11:47:54;98578.98;;;14.85;85.20
23635;BME280;11994;51.038;16.974;2023-10-31T11:50:20;98578.33;;;14.90;84.91
23635;BME280;11994;51.038;16.974;2023-10-31T11:52:57;98582.05;;;14.94;84.64
23635;BME280;11994;51.038;16.974;2023-10-31T11:55:23;98586.96;;;15.00;84.45
23635;BME280;11994;51.038;16.974;2023-10-31T11:57:49;98589.42;;;15.05;84.54
23635;BME280;11994;51.038;16.974;2023-10-31T12:00:20;98593.42;;;15.11;84.53
23635;BME280;11994;51.038;16.974;2023-10-31T12:05:24;98582.28;;;15.19;83.09
23635;BME280;11994;51.038;16.974;2023-10-31T12:07:49;98580.22;;;15.21;80.90
23635;BME280;11994;51.038;16.974;2023-10-31T12:10:21;98578.98;;;15.23;80.91
23635;BME280;11994;51.038;16.974;2023-10-31T12:12:48;98576.45;;;15.27;79.92
23635;BME280;11994;51.038;16.974;2023-10-31T12:15:13;98577.34;;;15.29;78.85
23635;BME280;11994;51.038;16.974;2023-10-31T12:17:38;98574.73;;;15.31;78.77
23635;BME280;11994;51.038;16.974;2023-10-31T12:20:04;98570.82;;;15.32;78.97
23635;BME280;11994;51.038;16.974;2023-10-31T12:22:30;98564.13;;;15.32;78.37
23635;BME280;11994;51.038;16.974;2023-10-31T12:25:02;98558.79;;;15.30;77.92
23635;BME280;11994;51.038;16.974;2023-10-31T12:27:41;98552.48;;;15.30;77.24
23635;BME280;11994;51.038;16.974;2023-10-31T12:30:07;98556.34;;;15.30;76.99
23635;BME280;11994;51.038;16.974;2023-10-31T12:32:32;98551.73;;;15.30;76.98
23635;BME280;11994;51.038;16.974;2023-10-31T12:34:58;98552.30;;;15.29;76.65
23635;BME280;11994;51.038;16.974;2023-10-31T12:37:23;98558.33;;;15.29;76.76
23635;BME280;11994;51.038;16.974;2023-10-31T12:39:48;98563.77;;;15.29;76.94
23635;BME280;11994;51.038;16.974;2023-10-31T12:42:15;98568.80;;;15.30;76.77
23635;BME280;11994;51.038;16.974;2023-10-31T12:44:40;98569.38;;;15.30;76.98